sensor_id;sensor_type;location;lat;lon;timestamp;temperature;humidity
64561;DHT22;50960;46.838;16.838;2023-11-21T00:49:50;5.80;99.90
64561;DHT22;50960;46.838;16.838;2023-11-21T00:52:16;5.80;99.90
64561;DHT22;50960;46.838;16.838;2023-11-21T00:54:43;5.80;99.90
64561;DHT22;50960;46.838;16.838;2023-11-21T00:57:09;5.80;99.90
64561;DHT22;50960;46.838;16.838;2023-11-21T00:59:37;5.80;99.90
64561;DHT22;50960;46.838;16.838;2023-11-21T01:02:03;5.70;99.90
64561;DHT22;50960;46.838;16.838;2023-11-21T01:04:31;5.60;99.90
64561;DHT22;50960;46.838;16.838;2023-11-21T01:06:58;5.60;99.90
64561;DHT22;50960;46.838;16.838;2023-11-21T01:09:24;5.60;99.90
64561;DHT22;50960;46.838;16.838;2023-11-21T01:11:51;5.60;99.90
64561;DHT22;50960;46.838;16.838;2023-11-21T01:14:18;5.60;99.90
64561;DHT22;50960;46.838;16.838;2023-11-21T01:16:45;5.60;99.90
64561;DHT22;50960;46.838;16.838;2023-11-21T01:19:11;5.60;99.90
64561;DHT22;50960;46.838;16.838;2023-11-21T01:21:37;5.60;99.90
64561;DHT22;50960;46.838;16.838;2023-11-21T01:24:04;5.50;99.90
64561;DHT22;50960;46.838;16.838;2023-11-21T01:30:11;5.40;99.90
64561;DHT22;50960;46.838;16.838;2023-11-21T01:32:37;5.50;99.90
64561;DHT22;50960;46.838;16.838;2023-11-21T01:35:04;5.40;99.90
64561;DHT22;50960;46.838;16.838;2023-11-21T01:37:32;5.50;99.90
64561;DHT22;50960;46.838;16.838;2023-11-21T01:39:59;5.60;99.90
64561;DHT22;50960;46.838;16.838;2023-11-21T01:42:27;5.50;99.90
64561;DHT22;50960;46.838;16.838;2023-11-21T01:44:55;5.40;99.90
64561;DHT22;50960;46.838;16.838;2023-11-21T01:47:21;5.40;99.90
64561;DHT22;50960;46.838;16.838;2023-11-21T01:49:48;5.40;99.90
64561;DHT22;50960;46.838;16.838;2023-11-21T01:52:14;5.40;99.90
64561;DHT22;50960;46.838;16.838;2023-11-21T01:54:41;5.60;99.90
64561;DHT22;50960;46.838;16.838;2023-11-21T01:57:08;5.70;99.90
64561;DHT22;50960;46.838;16.838;2023-11-21T01:59:36;5.70;99.90
64561;DHT22;50960;46.838;16.838;2023-11-21T02:02:06;5.70;99.90
64561;DHT22;50960;46.838;16.838;2023-11-21T02:04:33;5.80;99.90
64561;DHT22;50960;46.838;16.838;2023-11-21T02:07:00;5.80;99.90
64561;DHT22;50960;46.838;16.838;2023-11-21T02:09:28;5.80;99.90
64561;DHT22;50960;46.838;16.838;2023-11-21T02:11:56;5.90;99.90
64561;DHT22;50960;46.838;16.838;2023-11-21T02:14:22;5.90;99.90
64561;DHT22;50960;46.838;16.838;2023-11-21T02:16:52;6.00;99.90
64561;DHT22;50960;46.838;16.838;2023-11-21T02:19:19;6.10;99.90
64561;DHT22;50960;46.838;16.838;2023-11-21T02:21:52;6.10;99.90
64561;DHT22;50960;46.838;16.838;2023-11-21T02:24:20;6.10;99.90
64561;DHT22;50960;46.838;16.838;2023-11-21T02:26:50;6.20;99.90
64561;DHT22;50960;46.838;16.838;2023-11-21T02:29:18;6.20;99.90
64561;DHT22;50960;46.838;16.838;2023-11-21T02:31:51;6.20;99.90
64561;DHT22;50960;46.838;16.838;2023-11-21T02:34:18;6.20;99.90
64561;DHT22;50960;46.838;16.838;2023-11-21T02:36:44;6.20;99.90
64561;DHT22;50960;46.838;16.838;2023-11-21T02:42:33;6.20;99.90
64561;DHT22;50960;46.838;16.838;2023-11-21T02:45:00;6.30;99.90
64561;DHT22;50960;46.838;16.838;2023-11-21T02:47:26;6.30;99.90
64561;DHT22;50960;46.838;16.838;2023-11-21T02:49:52;6.20;99.90
64561;DHT22;50960;46.838;16.838;2023-11-21T02:52:19;6.30;99.90
64561;DHT22;50960;46.838;16.838;2023-11-21T02:54:45;6.40;99.90
64561;DHT22;50960;46.838;16.838;2023-11-21T02:57:11;6.40;99.90
64561;DHT22;50960;46.838;16.838;2023-11-21T02:59:37;6.40;99.90
64561;DHT22;50960;46.838;16.838;2023-11-21T03:02:04;6.50;99.90
64561;DHT22;50960;46.838;16.838;2023-11-21T03:04:30;6.50;99.90
64561;DHT22;50960;46.838;16.838;2023-11-21T03:06:58;6.60;99.90
64561;DHT22;50960;46.838;16.838;2023-11-21T03:09:24;6.50;99.90
64561;DHT22;50960;46.838;16.838;2023-11-21T03:11:53;6.50;99.90
64561;DHT22;50960;46.838;16.838;2023-11-21T03:14:19;6.60;99.90
64561;DHT22;50960;46.838;16.838;2023-11-21T03:16:46;6.70;99.90
64561;DHT22;50960;46.838;16.838;2023-11-21T03:19:12;6.70;99.90
64561;DHT22;50960;46.838;16.838;2023-11-21T03:21:39;6.70;99.90
64561;DHT22;50960;46.838;16.838;2023-11-21T03:24:06;6.70;99.90
64561;DHT22;50960;46.838;16.838;2023-11-21T03:26:33;6.70;99.90
64561;DHT22;50960;46.838;16.838;2023-11-21T03:29:00;6.60;99.90
64561;DHT22;50960;46.838;16.838;2023-11-21T03:31:26;6.50;99.90
64561;DHT22;50960;46.838;16.838;2023-11-21T03:33:52;6.50;99.90
64561;DHT22;50960;46.838;16.838;2023-11-21T03:36:20;6.50;99.90
64561;DHT22;50960;46.838;16.838;2023-11-21T03:38:48;6.60;99.90
64561;DHT22;50960;46.838;16.838;2023-11-21T03:41:14;6.60;99.90
64561;DHT22;50960;46.838;16.838;2023-11-21T03:43:40;6.70;99.90
64561;DHT22;50960;46.838;16.838;2023-11-21T03:46:07;6.70;99.90
64561;DHT22;50960;46.838;16.838;2023-11-21T03:48:33;6.80;99.90
64561;DHT22;50960;46.838;16.838;2023-11-21T03:50:59;6.80;99.90
64561;DHT22;50960;46.838;16.838;2023-11-21T03:53:25;6.90;99.90
64561;DHT22;50960;46.838;16.838;2023-11-21T03:55:52;6.80;99.90
64561;DHT22;50960;46.838;16.838;2023-11-21T03:58:18;6.80;99.90
64561;DHT22;50960;46.838;16.838;2023-11-21T04:00:44;6.80;99.90
64561;DHT22;50960;46.838;16.838;2023-11-21T04:03:12;6.70;99.90
64561;DHT22;50960;46.838;16.838;2023-11-21T04:05:39;6.80;99.90
64561;DHT22;50960;46.838;16.838;2023-11-21T04:08:06;6.80;99.90
64561;DHT22;50960;46.838;16.838;2023-11-21T04:10:32;6.80;99.90
64561;DHT22;50960;46.838;16.838;2023-11-21T04:12:59;6.70;99.90
64561;DHT22;50960;46.838;16.838;2023-11-21T04:15:26;6.60;99.90
64561;DHT22;50960;46.838;16.838;2023-11-21T04:17:52;6.60;99.90
64561;DHT22;50960;46.838;16.838;2023-11-21T04:20:19;6.70;99.90
64561;DHT22;50960;46.838;16.838;2023-11-21T04:22:45;6.70;99.90
64561;DHT22;50960;46.838;16.838;2023-11-21T04:25:14;6.70;99.90
64561;DHT22;50960;46.838;16.838;2023-11-21T04:31:02;6.70;99.90
64561;DHT22;50960;46.838;16.838;2023-11-21T04:33:29;6.70;99.90
64561;DHT22;50960;46.838;16.838;2023-11-21T04:35:55;6.80;99.90
64561;DHT22;50960;46.838;16.838;2023-11-21T04:38:21;6.80;99.90
64561;DHT22;50960;46.838;16.838;2023-11-21T04:40:47;6.90;99.90
64561;DHT22;50960;46.838;16.838;2023-11-21T04:43:13;7.00;99.90
64561;DHT22;50960;46.838;16.838;2023-11-21T04:45:40;7.10;99.90
64561;DHT22;50960;46.838;16.838;2023-11-21T04:48:07;7.30;99.90
64561;DHT22;50960;46.838;16.838;2023-11-21T04:50:34;7.30;99.90
64561;DHT22;50960;46.838;16.838;2023-11-21T04:53:01;7.30;99.90
64561;DHT22;50960;46.838;16.838;2023-11-21T04:55:27;7.20;99.90
64561;DHT22;50960;46.838;16.838;2023-11-21T04:57:54;7.20;99.90
64561;DHT22;50960;46.838;16.838;2023-11-21T05:00:20;7.20;99.90
64561;DHT22;50960;46.838;16.838;2023-11-21T05:02:47;7.30;99.90
64561;DHT22;50960;46.838;16.838;2023-11-21T05:05:13;7.40;99.90
64561;DHT22;50960;46.838;16.838;2023-11-21T05:07:40;7.40;99.90
64561;DHT22;50960;46.838;16.838;2023-11-21T05:10:08;7.20;99.90
64561;DHT22;50960;46.838;16.838;2023-11-21T05:12:38;7.20;99.90
64561;DHT22;50960;46.838;16.838;2023-11-21T05:15:05;7.30;99.90
64561;DHT22;50960;46.838;16.838;2023-11-21T05:17:39;7.30;99.90
64561;DHT22;50960;46.838;16.838;2023-11-21T05:20:09;7.30;99.90
64561;DHT22;50960;46.838;16.838;2023-11-21T05:22:37;7.40;99.90
64561;DHT22;50960;46.838;16.838;2023-11-21T05:25:05;7.50;99.90
64561;DHT22;50960;46.838;16.838;2023-11-21T05:27:31;7.60;99.90
64561;DHT22;50960;46.838;16.838;2023-11-21T05:29:58;7.60;99.90
64561;DHT22;50960;46.838;16.838;2023-11-21T05:32:25;7.70;99.90
64561;DHT22;50960;46.838;16.838;2023-11-21T05:34:52;7.70;99.90
64561;DHT22;50960;46.838;16.838;2023-11-21T05:37:18;7.80;99.90
64561;DHT22;50960;46.838;16.838;2023-11-21T05:39:44;7.80;99.90
64561;DHT22;50960;46.838;16.838;2023-11-21T05:42:11;7.90;99.90
64561;DHT22;50960;46.838;16.838;2023-11-21T05:44:38;7.90;99.90
64561;DHT22;50960;46.838;16.838;2023-11-21T05:47:07;7.90;99.90
64561;DHT22;50960;46.838;16.838;2023-11-21T05:49:33;7.90;99.90
64561;DHT22;50960;46.838;16.838;2023-11-21T05:52:00;7.90;99.90
64561;DHT22;50960;46.838;16.838;2023-11-21T05:54:26;7.80;99.90
64561;DHT22;50960;46.838;16.838;2023-11-21T05:56:52;7.80;99.90
64561;DHT22;50960;46.838;16.838;2023-11-21T05:59:18;7.80;99.90
64561;DHT22;50960;46.838;16.838;2023-11-21T06:01:47;7.90;99.90
64561;DHT22;50960;46.838;16.838;2023-11-21T06:04:13;7.80;99.90
64561;DHT22;50960;46.838;16.838;2023-11-21T06:06:41;7.80;99.90
64561;DHT22;50960;46.838;16.838;2023-11-21T06:09:08;7.70;99.90
64561;DHT22;50960;46.838;16.838;2023-11-21T06:11:37;7.60;99.90
64561;DHT22;50960;46.838;16.838;2023-11-21T06:14:04;7.50;99.90
64561;DHT22;50960;46.838;16.838;2023-11-21T06:16:32;7.50;99.90
64561;DHT22;50960;46.838;16.838;2023-11-21T06:18:58;7.50;99.90
64561;DHT22;50960;46.838;16.838;2023-11-21T06:21:24;7.50;99.90
64561;DHT22;50960;46.838;16.838;2023-11-21T06:23:50;7.40;99.90
64561;DHT22;50960;46.838;16.838;2023-11-21T06:26:18;7.40;99.90
64561;DHT22;50960;46.838;16.838;2023-11-21T06:28:46;7.50;99.90
64561;DHT22;50960;46.838;16.838;2023-11-21T06:31:12;7.40;99.90
64561;DHT22;50960;46.838;16.838;2023-11-21T06:33:40;7.40;99.90
64561;DHT22;50960;46.838;16.838;2023-11-21T06:36:07;7.40;99.90
64561;DHT22;50960;46.838;16.838;2023-11-21T06:38:34;7.60;99.90
64561;DHT22;50960;46.838;16.838;2023-11-21T06:41:00;7.60;99.90
64561;DHT22;50960;46.838;16.838;2023-11-21T06:43:30;7.90;99.90
64561;DHT22;50960;46.838;16.838;2023-11-21T06:45:59;7.90;99.90
64561;DHT22;50960;46.838;16.838;2023-11-21T06:48:26;7.10;99.90
64561;DHT22;50960;46.838;16.838;2023-11-21T06:50:52;8.50;99.90
64561;DHT22;50960;46.838;16.838;2023-11-21T06:53:18;8.10;99.90
64561;DHT22;50960;46.838;16.838;2023-11-21T06:55:47;9.10;99.90
64561;DHT22;50960;46.838;16.838;2023-11-21T06:58:14;8.10;99.90
64561;DHT22;50960;46.838;16.838;2023-11-21T07:00:40;8.20;99.90
64561;DHT22;50960;46.838;16.838;2023-11-21T07:03:11;7.90;99.90
64561;DHT22;50960;46.838;16.838;2023-11-21T07:05:37;8.30;99.90
64561;DHT22;50960;46.838;16.838;2023-11-21T07:08:04;8.30;99.90
64561;DHT22;50960;46.838;16.838;2023-11-21T07:10:30;8.80;99.90
64561;DHT22;50960;46.838;16.838;2023-11-21T07:12:57;8.30;99.90
64561;DHT22;50960;46.838;16.838;2023-11-21T07:15:23;8.40;99.90
64561;DHT22;50960;46.838;16.838;2023-11-21T07:17:51;8.40;99.90
64561;DHT22;50960;46.838;16.838;2023-11-21T07:20:20;8.40;99.90
64561;DHT22;50960;46.838;16.838;2023-11-21T07:22:47;8.50;99.90
64561;DHT22;50960;46.838;16.838;2023-11-21T07:25:13;8.40;99.90
64561;DHT22;50960;46.838;16.838;2023-11-21T07:27:40;8.40;99.90
64561;DHT22;50960;46.838;16.838;2023-11-21T07:30:07;8.40;99.90
64561;DHT22;50960;46.838;16.838;2023-11-21T07:32:35;8.40;99.90
64561;DHT22;50960;46.838;16.838;2023-11-21T07:35:01;8.40;99.90
64561;DHT22;50960;46.838;16.838;2023-11-21T07:37:27;8.70;99.90
64561;DHT22;50960;46.838;16.838;2023-11-21T07:39:57;8.30;99.90
64561;DHT22;50960;46.838;16.838;2023-11-21T07:42:23;8.40;99.90
64561;DHT22;50960;46.838;16.838;2023-11-21T07:44:52;8.40;99.90
64561;DHT22;50960;46.838;16.838;2023-11-21T07:47:18;8.30;99.90
64561;DHT22;50960;46.838;16.838;2023-11-21T07:49:45;8.20;99.90
64561;DHT22;50960;46.838;16.838;2023-11-21T07:52:13;8.30;99.90
64561;DHT22;50960;46.838;16.838;2023-11-21T07:54:42;8.20;99.90
64561;DHT22;50960;46.838;16.838;2023-11-21T07:57:08;8.20;99.90
64561;DHT22;50960;46.838;16.838;2023-11-21T07:59:34;8.30;99.90
64561;DHT22;50960;46.838;16.838;2023-11-21T08:02:01;8.40;99.90
64561;DHT22;50960;46.838;16.838;2023-11-21T08:04:27;8.50;99.90
64561;DHT22;50960;46.838;16.838;2023-11-21T08:06:53;8.60;99.90
64561;DHT22;50960;46.838;16.838;2023-11-21T08:09:19;8.80;99.90
64561;DHT22;50960;46.838;16.838;2023-11-21T08:11:49;9.00;99.90
64561;DHT22;50960;46.838;16.838;2023-11-21T08:14:17;8.80;99.90
64561;DHT22;50960;46.838;16.838;2023-11-21T08:16:44;8.70;99.90
64561;DHT22;50960;46.838;16.838;2023-11-21T08:19:10;8.30;99.90
64561;DHT22;50960;46.838;16.838;2023-11-21T08:21:37;8.40;99.90
64561;DHT22;50960;46.838;16.838;2023-11-21T08:24:06;8.90;99.90
64561;DHT22;50960;46.838;16.838;2023-11-21T08:26:37;9.20;99.90
64561;DHT22;50960;46.838;16.838;2023-11-21T08:29:04;9.10;99.90
64561;DHT22;50960;46.838;16.838;2023-11-21T08:31:32;8.80;99.90
64561;DHT22;50960;46.838;16.838;2023-11-21T08:33:59;8.90;99.90
64561;DHT22;50960;46.838;16.838;2023-11-21T08:36:28;8.30;99.90
64561;DHT22;50960;46.838;16.838;2023-11-21T08:38:54;9.10;99.90
64561;DHT22;50960;46.838;16.838;2023-11-21T08:41:21;9.90;99.90
64561;DHT22;50960;46.838;16.838;2023-11-21T08:43:50;9.40;99.90
64561;DHT22;50960;46.838;16.838;2023-11-21T08:46:17;9.00;99.90
64561;DHT22;50960;46.838;16.838;2023-11-21T08:48:44;8.90;99.90
64561;DHT22;50960;46.838;16.838;2023-11-21T08:51:11;8.90;99.90
64561;DHT22;50960;46.838;16.838;2023-11-21T08:53:38;8.70;99.90
64561;DHT22;50960;46.838;16.838;2023-11-21T08:56:05;8.60;99.90
64561;DHT22;50960;46.838;16.838;2023-11-21T08:58:32;7.90;99.90
64561;DHT22;50960;46.838;16.838;2023-11-21T09:00:58;8.40;99.90
64561;DHT22;50960;46.838;16.838;2023-11-21T09:03:25;9.10;99.90
64561;DHT22;50960;46.838;16.838;2023-11-21T09:05:51;8.80;99.90
64561;DHT22;50960;46.838;16.838;2023-11-21T09:08:17;8.90;99.90
64561;DHT22;50960;46.838;16.838;2023-11-21T09:10:44;9.00;99.90
64561;DHT22;50960;46.838;16.838;2023-11-21T09:13:13;9.30;99.90
64561;DHT22;50960;46.838;16.838;2023-11-21T09:15:39;9.10;99.90
64561;DHT22;50960;46.838;16.838;2023-11-21T09:18:06;9.10;99.90
64561;DHT22;50960;46.838;16.838;2023-11-21T09:20:32;9.30;99.90
64561;DHT22;50960;46.838;16.838;2023-11-21T09:22:58;9.20;99.90
64561;DHT22;50960;46.838;16.838;2023-11-21T09:25:25;9.50;99.90
64561;DHT22;50960;46.838;16.838;2023-11-21T09:27:51;9.70;99.90
64561;DHT22;50960;46.838;16.838;2023-11-21T09:30:17;9.80;99.90
64561;DHT22;50960;46.838;16.838;2023-11-21T09:32:44;10.00;99.90
64561;DHT22;50960;46.838;16.838;2023-11-21T09:35:11;10.20;99.90
64561;DHT22;50960;46.838;16.838;2023-11-21T09:37:39;10.30;99.90
64561;DHT22;50960;46.838;16.838;2023-11-21T09:40:10;10.40;99.90
64561;DHT22;50960;46.838;16.838;2023-11-21T09:42:40;10.50;99.90
64561;DHT22;50960;46.838;16.838;2023-11-21T09:45:17;10.50;99.90
64561;DHT22;50960;46.838;16.838;2023-11-21T09:47:48;10.50;99.90
64561;DHT22;50960;46.838;16.838;2023-11-21T09:50:17;10.80;99.90
64561;DHT22;50960;46.838;16.838;2023-11-21T09:55:28;10.70;99.90
64561;DHT22;50960;46.838;16.838;2023-11-21T09:57:56;10.80;99.90
64561;DHT22;50960;46.838;16.838;2023-11-21T10:00:23;10.90;99.90
64561;DHT22;50960;46.838;16.838;2023-11-21T10:02:51;11.00;99.90
64561;DHT22;50960;46.838;16.838;2023-11-21T10:05:19;10.70;99.90
64561;DHT22;50960;46.838;16.838;2023-11-21T10:07:50;10.50;99.90
64561;DHT22;50960;46.838;16.838;2023-11-21T10:10:19;11.00;99.90
64561;DHT22;50960;46.838;16.838;2023-11-21T10:13:06;11.10;99.90
64561;DHT22;50960;46.838;16.838;2023-11-21T10:15:34;11.10;99.90
64561;DHT22;50960;46.838;16.838;2023-11-21T10:18:05;11.20;99.90
64561;DHT22;50960;46.838;16.838;2023-11-21T10:20:33;11.10;99.90
64561;DHT22;50960;46.838;16.838;2023-11-21T10:23:00;11.10;99.90
64561;DHT22;50960;46.838;16.838;2023-11-21T10:25:30;11.20;99.90
64561;DHT22;50960;46.838;16.838;2023-11-21T10:27:58;10.70;99.90
64561;DHT22;50960;46.838;16.838;2023-11-21T10:30:31;11.00;99.90
64561;DHT22;50960;46.838;16.838;2023-11-21T10:32:59;10.60;99.90
64561;DHT22;50960;46.838;16.838;2023-11-21T10:35:47;11.20;99.90
64561;DHT22;50960;46.838;16.838;2023-11-21T10:38:20;10.50;99.90
64561;DHT22;50960;46.838;16.838;2023-11-21T10:40:49;9.60;99.90
64561;DHT22;50960;46.838;16.838;2023-11-21T10:43:16;10.40;99.90
64561;DHT22;50960;46.838;16.838;2023-11-21T10:45:43;10.50;99.90
64561;DHT22;50960;46.838;16.838;2023-11-21T10:48:15;10.60;99.90
64561;DHT22;50960;46.838;16.838;2023-11-21T10:50:42;10.80;99.90
64561;DHT22;50960;46.838;16.838;2023-11-21T10:53:09;10.40;99.90
64561;DHT22;50960;46.838;16.838;2023-11-21T10:55:37;10.30;99.90
64561;DHT22;50960;46.838;16.838;2023-11-21T10:58:04;11.30;99.90
64561;DHT22;50960;46.838;16.838;2023-11-21T11:00:33;10.80;99.90
64561;DHT22;50960;46.838;16.838;2023-11-21T11:03:00;11.10;99.90
64561;DHT22;50960;46.838;16.838;2023-11-21T11:05:28;11.50;99.90
64561;DHT22;50960;46.838;16.838;2023-11-21T11:08:06;11.10;99.90
64561;DHT22;50960;46.838;16.838;2023-11-21T11:10:34;10.70;99.90
64561;DHT22;50960;46.838;16.838;2023-11-21T11:13:00;11.30;99.90
64561;DHT22;50960;46.838;16.838;2023-11-21T11:15:27;11.20;99.90
64561;DHT22;50960;46.838;16.838;2023-11-21T11:17:54;11.10;99.90
64561;DHT22;50960;46.838;16.838;2023-11-21T11:20:27;11.00;99.90
64561;DHT22;50960;46.838;16.838;2023-11-21T11:34:26;11.80;99.90
64561;DHT22;50960;46.838;16.838;2023-11-21T11:37:01;12.00;99.90
64561;DHT22;50960;46.838;16.838;2023-11-21T11:39:34;12.30;99.90
64561;DHT22;50960;46.838;16.838;2023-11-21T11:42:03;12.20;99.90
64561;DHT22;50960;46.838;16.838;2023-11-21T11:50:06;11.60;99.90
64561;DHT22;50960;46.838;16.838;2023-11-21T11:52:53;11.80;99.90
64561;DHT22;50960;46.838;16.838;2023-11-21T11:55:22;11.60;99.90
64561;DHT22;50960;46.838;16.838;2023-11-21T11:57:53;11.80;99.90
64561;DHT22;50960;46.838;16.838;2023-11-21T12:02:56;11.70;99.90
64561;DHT22;50960;46.838;16.838;2023-11-21T12:05:27;11.20;99.90
64561;DHT22;50960;46.838;16.838;2023-11-21T12:07:55;11.70;99.90
64561;DHT22;50960;46.838;16.838;2023-11-21T12:10:25;11.70;99.90
64561;DHT22;50960;46.838;16.838;2023-11-21T12:12:54;11.40;99.90
64561;DHT22;50960;46.838;16.838;2023-11-21T12:15:23;11.00;99.90
64561;DHT22;50960;46.838;16.838;2023-11-21T12:17:51;10.90;99.90
64561;DHT22;50960;46.838;16.838;2023-11-21T12:20:19;11.20;99.90
64561;DHT22;50960;46.838;16.838;2023-11-21T12:22:50;10.90;99.90
64561;DHT22;50960;46.838;16.838;2023-11-21T12:25:19;11.40;99.90
64561;DHT22;50960;46.838;16.838;2023-11-21T12:27:50;11.40;99.90
64561;DHT22;50960;46.838;16.838;2023-11-21T12:30:21;10.70;99.90
64561;DHT22;50960;46.838;16.838;2023-11-21T12:32:50;10.50;99.90
64561;DHT22;50960;46.838;16.838;2023-11-21T12:35:21;11.10;99.90
64561;DHT22;50960;46.838;16.838;2023-11-21T12:37:48;11.10;99.90
64561;DHT22;50960;46.838;16.838;2023-11-21T12:40:15;11.20;99.90
64561;DHT22;50960;46.838;16.838;2023-11-21T12:42:47;11.20;99.90
64561;DHT22;50960;46.838;16.838;2023-11-21T12:47:44;11.40;99.90
64561;DHT22;50960;46.838;16.838;2023-11-21T12:50:11;11.70;99.90
64561;DHT22;50960;46.838;16.838;2023-11-21T12:52:44;11.70;99.90
64561;DHT22;50960;46.838;16.838;2023-11-21T12:55:17;11.80;99.90
64561;DHT22;50960;46.838;16.838;2023-11-21T12:57:45;11.80;99.90
64561;DHT22;50960;46.838;16.838;2023-11-21T13:00:12;11.70;99.90
64561;DHT22;50960;46.838;16.838;2023-11-21T13:02:43;11.70;99.90
64561;DHT22;50960;46.838;16.838;2023-11-21T13:05:09;11.80;99.90
64561;DHT22;50960;46.838;16.838;2023-11-21T13:07:48;11.40;99.90
64561;DHT22;50960;46.838;16.838;2023-11-21T13:10:16;11.10;99.90
64561;DHT22;50960;46.838;16.838;2023-11-21T13:12:46;11.60;99.90
64561;DHT22;50960;46.838;16.838;2023-11-21T13:15:17;11.50;99.90
64561;DHT22;50960;46.838;16.838;2023-11-21T13:17:45;11.60;99.90
64561;DHT22;50960;46.838;16.838;2023-11-21T13:20:12;11.30;99.90
64561;DHT22;50960;46.838;16.838;2023-11-21T13:22:54;11.30;99.90
64561;DHT22;50960;46.838;16.838;2023-11-21T13:25:27;11.30;99.90
64561;DHT22;50960;46.838;16.838;2023-11-21T13:28:00;11.40;99.90
64561;DHT22;50960;46.838;16.838;2023-11-21T13:30:30;11.60;99.90
64561;DHT22;50960;46.838;16.838;2023-11-21T13:33:06;11.40;99.90
64561;DHT22;50960;46.838;16.838;2023-11-21T13:35:40;11.50;99.90
64561;DHT22;50960;46.838;16.838;2023-11-21T13:38:16;11.60;99.90
64561;DHT22;50960;46.838;16.838;2023-11-21T13:40:48;11.50;99.90
64561;DHT22;50960;46.838;16.838;2023-11-21T13:43:16;11.20;99.90
64561;DHT22;50960;46.838;16.838;2023-11-21T13:45:44;11.30;99.90
64561;DHT22;50960;46.838;16.838;2023-11-21T13:48:12;11.20;99.90
64561;DHT22;50960;46.838;16.838;2023-11-21T13:50:46;11.20;99.90
64561;DHT22;50960;46.838;16.838;2023-11-21T13:53:21;11.30;99.90
64561;DHT22;50960;46.838;16.838;2023-11-21T13:55:51;11.30;99.90
64561;DHT22;50960;46.838;16.838;2023-11-21T13:58:22;11.40;99.90
64561;DHT22;50960;46.838;16.838;2023-11-21T14:00:49;11.10;99.90
64561;DHT22;50960;46.838;16.838;2023-11-21T14:03:24;11.00;99.90
64561;DHT22;50960;46.838;16.838;2023-11-21T14:06:05;10.90;99.90
64561;DHT22;50960;46.838;16.838;2023-11-21T14:08:40;11.00;99.90
64561;DHT22;50960;46.838;16.838;2023-11-21T14:11:08;11.20;99.90
64561;DHT22;50960;46.838;16.838;2023-11-21T14:13:37;10.70;99.90
64561;DHT22;50960;46.838;16.838;2023-11-21T14:16:04;10.70;99.90
64561;DHT22;50960;46.838;16.838;2023-11-21T14:18:32;10.70;99.90
64561;DHT22;50960;46.838;16.838;2023-11-21T14:21:16;10.80;99.90
64561;DHT22;50960;46.838;16.838;2023-11-21T14:23:42;10.60;99.90
64561;DHT22;50960;46.838;16.838;2023-11-21T14:26:11;10.60;99.90
64561;DHT22;50960;46.838;16.838;2023-11-21T14:28:42;10.60;99.90
64561;DHT22;50960;46.838;16.838;2023-11-21T14:31:08;10.40;99.90
64561;DHT22;50960;46.838;16.838;2023-11-21T14:33:41;10.40;99.90
64561;DHT22;50960;46.838;16.838;2023-11-21T14:36:07;10.40;99.90
64561;DHT22;50960;46.838;16.838;2023-11-21T14:38:36;10.30;99.90
64561;DHT22;50960;46.838;16.838;2023-11-21T14:41:06;10.30;99.90
64561;DHT22;50960;46.838;16.838;2023-11-21T14:43:37;10.30;99.90
64561;DHT22;50960;46.838;16.838;2023-11-21T14:46:05;10.20;99.90
64561;DHT22;50960;46.838;16.838;2023-11-21T14:48:36;10.20;99.90
64561;DHT22;50960;46.838;16.838;2023-11-21T14:51:11;10.00;99.90
64561;DHT22;50960;46.838;16.838;2023-11-21T14:53:59;10.00;99.90
64561;DHT22;50960;46.838;16.838;2023-11-21T14:56:32;9.90;99.90
64561;DHT22;50960;46.838;16.838;2023-11-21T14:59:02;9.90;99.90
64561;DHT22;50960;46.838;16.838;2023-11-21T15:01:32;9.80;99.90
64561;DHT22;50960;46.838;16.838;2023-11-21T15:04:17;9.80;99.90
64561;DHT22;50960;46.838;16.838;2023-11-21T15:07:11;9.60;99.90
64561;DHT22;50960;46.838;16.838;2023-11-21T15:09:44;9.80;99.90
64561;DHT22;50960;46.838;16.838;2023-11-21T15:12:12;9.50;99.90
64561;DHT22;50960;46.838;16.838;2023-11-21T15:14:46;9.40;99.90
64561;DHT22;50960;46.838;16.838;2023-11-21T15:17:14;9.30;99.90
64561;DHT22;50960;46.838;16.838;2023-11-21T15:19:49;9.00;99.90
64561;DHT22;50960;46.838;16.838;2023-11-21T15:22:16;9.20;99.90
64561;DHT22;50960;46.838;16.838;2023-11-21T15:24:43;9.10;99.90
64561;DHT22;50960;46.838;16.838;2023-11-21T15:27:13;9.10;99.90
64561;DHT22;50960;46.838;16.838;2023-11-21T15:29:40;9.00;99.90
64561;DHT22;50960;46.838;16.838;2023-11-21T15:32:07;9.00;99.90
64561;DHT22;50960;46.838;16.838;2023-11-21T15:34:34;9.50;99.90
64561;DHT22;50960;46.838;16.838;2023-11-21T15:37:01;9.40;99.90
64561;DHT22;50960;46.838;16.838;2023-11-21T15:39:29;8.90;99.90
64561;DHT22;50960;46.838;16.838;2023-11-21T15:41:57;8.80;99.90
64561;DHT22;50960;46.838;16.838;2023-11-21T15:46:53;8.80;99.90
64561;DHT22;50960;46.838;16.838;2023-11-21T15:49:20;8.80;99.90
64561;DHT22;50960;46.838;16.838;2023-11-21T15:51:49;8.70;99.90
64561;DHT22;50960;46.838;16.838;2023-11-21T15:54:26;8.70;99.90
64561;DHT22;50960;46.838;16.838;2023-11-21T15:56:53;8.70;99.90
64561;DHT22;50960;46.838;16.838;2023-11-21T15:59:23;8.70;99.90
64561;DHT22;50960;46.838;16.838;2023-11-21T16:01:53;8.50;99.90
64561;DHT22;50960;46.838;16.838;2023-11-21T16:04:19;8.60;99.90
64561;DHT22;50960;46.838;16.838;2023-11-21T16:06:48;8.70;99.90
64561;DHT22;50960;46.838;16.838;2023-11-21T16:09:14;8.70;99.90
64561;DHT22;50960;46.838;16.838;2023-11-21T16:11:55;8.70;99.90
64561;DHT22;50960;46.838;16.838;2023-11-21T16:14:26;8.70;99.90
64561;DHT22;50960;46.838;16.838;2023-11-21T16:16:55;8.80;99.90
64561;DHT22;50960;46.838;16.838;2023-11-21T16:19:24;8.70;99.90
64561;DHT22;50960;46.838;16.838;2023-11-21T16:21:50;8.80;99.90
64561;DHT22;50960;46.838;16.838;2023-11-21T16:24:19;8.80;99.90
64561;DHT22;50960;46.838;16.838;2023-11-21T16:26:46;8.80;99.90
64561;DHT22;50960;46.838;16.838;2023-11-21T16:29:13;8.80;99.90
64561;DHT22;50960;46.838;16.838;2023-11-21T16:31:41;8.90;99.90
64561;DHT22;50960;46.838;16.838;2023-11-21T16:34:14;8.80;99.90
64561;DHT22;50960;46.838;16.838;2023-11-21T16:36:41;8.90;99.90
64561;DHT22;50960;46.838;16.838;2023-11-21T16:39:09;8.90;99.90
64561;DHT22;50960;46.838;16.838;2023-11-21T16:41:39;8.90;99.90
64561;DHT22;50960;46.838;16.838;2023-11-21T16:44:06;9.00;99.90
64561;DHT22;50960;46.838;16.838;2023-11-21T16:46:32;8.90;99.90
64561;DHT22;50960;46.838;16.838;2023-11-21T16:51:27;8.60;99.90
64561;DHT22;50960;46.838;16.838;2023-11-21T16:53:53;8.90;99.90
64561;DHT22;50960;46.838;16.838;2023-11-21T16:56:20;9.00;99.90
64561;DHT22;50960;46.838;16.838;2023-11-21T16:58:46;9.10;99.90
64561;DHT22;50960;46.838;16.838;2023-11-21T17:01:12;8.70;99.90